sensor_id;sensor_type;location;lat;lon;timestamp;temperature;humidity
15203;DHT22;7702;51.046;5.184;2024-01-15T00:02:17;1.60;99.90
15203;DHT22;7702;51.046;5.184;2024-01-15T00:04:42;1.50;99.90
15203;DHT22;7702;51.046;5.184;2024-01-15T00:07:09;1.50;99.90
15203;DHT22;7702;51.046;5.184;2024-01-15T00:09:35;1.40;99.90
15203;DHT22;7702;51.046;5.184;2024-01-15T00:12:01;1.40;99.90
15203;DHT22;7702;51.046;5.184;2024-01-15T00:14:28;1.30;99.90
15203;DHT22;7702;51.046;5.184;2024-01-15T00:16:53;1.30;99.90
15203;DHT22;7702;51.046;5.184;2024-01-15T00:19:21;1.30;99.90
15203;DHT22;7702;51.046;5.184;2024-01-15T00:21:47;1.40;99.90
15203;DHT22;7702;51.046;5.184;2024-01-15T00:24:12;1.40;99.90
15203;DHT22;7702;51.046;5.184;2024-01-15T00:26:38;1.40;99.90
15203;DHT22;7702;51.046;5.184;2024-01-15T00:29:03;1.40;99.90
15203;DHT22;7702;51.046;5.184;2024-01-15T00:31:30;1.40;99.90
15203;DHT22;7702;51.046;5.184;2024-01-15T00:33:56;1.40;99.90
15203;DHT22;7702;51.046;5.184;2024-01-15T00:36:23;1.40;99.90
15203;DHT22;7702;51.046;5.184;2024-01-15T00:38:48;1.40;99.90
15203;DHT22;7702;51.046;5.184;2024-01-15T00:41:14;1.40;99.90
15203;DHT22;7702;51.046;5.184;2024-01-15T00:43:40;1.40;99.90
15203;DHT22;7702;51.046;5.184;2024-01-15T00:46:06;1.40;99.90
15203;DHT22;7702;51.046;5.184;2024-01-15T00:48:32;1.40;99.90
15203;DHT22;7702;51.046;5.184;2024-01-15T00:50:58;1.40;99.90
15203;DHT22;7702;51.046;5.184;2024-01-15T00:53:25;1.40;99.90
15203;DHT22;7702;51.046;5.184;2024-01-15T00:55:50;1.40;99.90
15203;DHT22;7702;51.046;5.184;2024-01-15T00:58:16;1.30;99.90
15203;DHT22;7702;51.046;5.184;2024-01-15T01:00:42;1.30;99.90
15203;DHT22;7702;51.046;5.184;2024-01-15T01:03:08;1.30;99.90
15203;DHT22;7702;51.046;5.184;2024-01-15T01:05:34;1.40;99.90
15203;DHT22;7702;51.046;5.184;2024-01-15T01:08:00;1.30;99.90
15203;DHT22;7702;51.046;5.184;2024-01-15T01:10:26;1.30;99.90
15203;DHT22;7702;51.046;5.184;2024-01-15T01:12:52;1.30;99.90
15203;DHT22;7702;51.046;5.184;2024-01-15T01:15:18;1.30;99.90
15203;DHT22;7702;51.046;5.184;2024-01-15T01:17:43;1.20;99.90
15203;DHT22;7702;51.046;5.184;2024-01-15T01:20:09;1.30;99.90
15203;DHT22;7702;51.046;5.184;2024-01-15T01:22:36;1.30;99.90
15203;DHT22;7702;51.046;5.184;2024-01-15T01:25:02;1.30;99.90
15203;DHT22;7702;51.046;5.184;2024-01-15T01:27:28;1.30;99.90
15203;DHT22;7702;51.046;5.184;2024-01-15T01:29:54;1.30;99.90
15203;DHT22;7702;51.046;5.184;2024-01-15T01:32:20;1.30;99.90
15203;DHT22;7702;51.046;5.184;2024-01-15T01:34:46;1.30;99.90
15203;DHT22;7702;51.046;5.184;2024-01-15T01:37:11;1.40;99.90
15203;DHT22;7702;51.046;5.184;2024-01-15T01:39:43;1.40;99.90
15203;DHT22;7702;51.046;5.184;2024-01-15T01:42:10;1.40;99.90
15203;DHT22;7702;51.046;5.184;2024-01-15T01:44:35;1.40;99.90
15203;DHT22;7702;51.046;5.184;2024-01-15T01:47:02;1.50;99.90
15203;DHT22;7702;51.046;5.184;2024-01-15T01:49:29;1.50;99.90
15203;DHT22;7702;51.046;5.184;2024-01-15T01:52:00;1.50;99.90
15203;DHT22;7702;51.046;5.184;2024-01-15T01:54:29;1.50;99.90
15203;DHT22;7702;51.046;5.184;2024-01-15T01:56:55;1.50;99.90
15203;DHT22;7702;51.046;5.184;2024-01-15T01:59:23;1.50;99.90
15203;DHT22;7702;51.046;5.184;2024-01-15T02:01:49;1.50;99.90
15203;DHT22;7702;51.046;5.184;2024-01-15T02:04:16;1.50;99.90
15203;DHT22;7702;51.046;5.184;2024-01-15T02:06:42;1.50;99.90
15203;DHT22;7702;51.046;5.184;2024-01-15T02:09:08;1.40;99.90
15203;DHT22;7702;51.046;5.184;2024-01-15T02:11:34;1.40;99.90
15203;DHT22;7702;51.046;5.184;2024-01-15T02:14:00;1.40;99.90
15203;DHT22;7702;51.046;5.184;2024-01-15T02:16:26;1.40;99.90
15203;DHT22;7702;51.046;5.184;2024-01-15T02:18:52;1.50;99.90
15203;DHT22;7702;51.046;5.184;2024-01-15T02:21:17;1.40;99.90
15203;DHT22;7702;51.046;5.184;2024-01-15T02:23:43;1.50;99.90
15203;DHT22;7702;51.046;5.184;2024-01-15T02:26:09;1.50;99.90
15203;DHT22;7702;51.046;5.184;2024-01-15T02:28:34;1.50;99.90
15203;DHT22;7702;51.046;5.184;2024-01-15T02:31:01;1.50;99.90
15203;DHT22;7702;51.046;5.184;2024-01-15T02:33:26;1.40;99.90
15203;DHT22;7702;51.046;5.184;2024-01-15T02:35:52;1.50;99.90
15203;DHT22;7702;51.046;5.184;2024-01-15T02:38:18;1.40;99.90
15203;DHT22;7702;51.046;5.184;2024-01-15T02:40:44;1.50;99.90
15203;DHT22;7702;51.046;5.184;2024-01-15T02:43:11;1.50;99.90
15203;DHT22;7702;51.046;5.184;2024-01-15T02:45:37;1.50;99.90
15203;DHT22;7702;51.046;5.184;2024-01-15T02:48:03;1.50;99.90
15203;DHT22;7702;51.046;5.184;2024-01-15T02:50:30;1.40;99.90
15203;DHT22;7702;51.046;5.184;2024-01-15T02:52:56;1.40;99.90
15203;DHT22;7702;51.046;5.184;2024-01-15T02:55:21;1.40;99.90
15203;DHT22;7702;51.046;5.184;2024-01-15T02:57:47;1.40;99.90
15203;DHT22;7702;51.046;5.184;2024-01-15T03:00:13;1.40;99.90
15203;DHT22;7702;51.046;5.184;2024-01-15T03:02:40;1.40;99.90
15203;DHT22;7702;51.046;5.184;2024-01-15T03:05:09;1.40;99.90
15203;DHT22;7702;51.046;5.184;2024-01-15T03:07:35;1.40;99.90
15203;DHT22;7702;51.046;5.184;2024-01-15T03:10:01;1.30;99.90
15203;DHT22;7702;51.046;5.184;2024-01-15T03:12:27;1.40;99.90
15203;DHT22;7702;51.046;5.184;2024-01-15T03:14:53;1.40;99.90
15203;DHT22;7702;51.046;5.184;2024-01-15T03:17:19;1.40;99.90
15203;DHT22;7702;51.046;5.184;2024-01-15T03:19:44;1.50;99.90
15203;DHT22;7702;51.046;5.184;2024-01-15T03:22:10;1.50;99.90
15203;DHT22;7702;51.046;5.184;2024-01-15T03:24:36;1.40;99.90
15203;DHT22;7702;51.046;5.184;2024-01-15T03:27:02;1.50;99.90
15203;DHT22;7702;51.046;5.184;2024-01-15T03:29:28;1.50;99.90
15203;DHT22;7702;51.046;5.184;2024-01-15T03:31:54;1.40;99.90
15203;DHT22;7702;51.046;5.184;2024-01-15T03:34:19;1.40;99.90
15203;DHT22;7702;51.046;5.184;2024-01-15T03:36:45;1.40;99.90
15203;DHT22;7702;51.046;5.184;2024-01-15T03:39:11;1.40;99.90
15203;DHT22;7702;51.046;5.184;2024-01-15T03:41:36;1.40;99.90
15203;DHT22;7702;51.046;5.184;2024-01-15T03:44:02;1.40;99.90
15203;DHT22;7702;51.046;5.184;2024-01-15T03:46:28;1.40;99.90
15203;DHT22;7702;51.046;5.184;2024-01-15T03:48:54;1.40;99.90
15203;DHT22;7702;51.046;5.184;2024-01-15T03:51:20;1.40;99.90
15203;DHT22;7702;51.046;5.184;2024-01-15T03:53:46;1.40;99.90
15203;DHT22;7702;51.046;5.184;2024-01-15T03:56:12;1.50;99.90
15203;DHT22;7702;51.046;5.184;2024-01-15T03:58:37;1.50;99.90
15203;DHT22;7702;51.046;5.184;2024-01-15T04:01:03;1.50;99.90
15203;DHT22;7702;51.046;5.184;2024-01-15T04:03:29;1.50;99.90
15203;DHT22;7702;51.046;5.184;2024-01-15T04:05:54;1.50;99.90
15203;DHT22;7702;51.046;5.184;2024-01-15T04:08:20;1.50;99.90
15203;DHT22;7702;51.046;5.184;2024-01-15T04:10:46;1.60;99.90
15203;DHT22;7702;51.046;5.184;2024-01-15T04:13:11;1.60;99.90
15203;DHT22;7702;51.046;5.184;2024-01-15T04:15:37;1.50;99.90
15203;DHT22;7702;51.046;5.184;2024-01-15T04:18:03;1.50;99.90
15203;DHT22;7702;51.046;5.184;2024-01-15T04:20:29;1.60;99.90
15203;DHT22;7702;51.046;5.184;2024-01-15T04:22:54;1.50;99.90
15203;DHT22;7702;51.046;5.184;2024-01-15T04:25:20;1.50;99.90
15203;DHT22;7702;51.046;5.184;2024-01-15T04:27:46;1.50;99.90
15203;DHT22;7702;51.046;5.184;2024-01-15T04:30:12;1.50;99.90
15203;DHT22;7702;51.046;5.184;2024-01-15T04:32:38;1.60;99.90
15203;DHT22;7702;51.046;5.184;2024-01-15T04:35:04;1.60;99.90
15203;DHT22;7702;51.046;5.184;2024-01-15T04:37:29;1.60;99.90
15203;DHT22;7702;51.046;5.184;2024-01-15T04:39:55;1.60;99.90
15203;DHT22;7702;51.046;5.184;2024-01-15T04:42:22;1.70;99.90
15203;DHT22;7702;51.046;5.184;2024-01-15T04:44:48;1.70;99.90
15203;DHT22;7702;51.046;5.184;2024-01-15T04:47:15;1.70;99.90
15203;DHT22;7702;51.046;5.184;2024-01-15T04:49:40;1.70;99.90
15203;DHT22;7702;51.046;5.184;2024-01-15T04:52:06;1.70;99.90
15203;DHT22;7702;51.046;5.184;2024-01-15T04:54:32;1.70;99.90
15203;DHT22;7702;51.046;5.184;2024-01-15T04:56:57;1.60;99.90
15203;DHT22;7702;51.046;5.184;2024-01-15T04:59:23;1.70;99.90
15203;DHT22;7702;51.046;5.184;2024-01-15T05:01:49;1.70;99.90
15203;DHT22;7702;51.046;5.184;2024-01-15T05:04:15;1.70;99.90
15203;DHT22;7702;51.046;5.184;2024-01-15T05:06:40;1.80;99.90
15203;DHT22;7702;51.046;5.184;2024-01-15T05:09:06;1.80;99.90
15203;DHT22;7702;51.046;5.184;2024-01-15T05:11:32;1.80;99.90
15203;DHT22;7702;51.046;5.184;2024-01-15T05:13:58;1.80;99.90
15203;DHT22;7702;51.046;5.184;2024-01-15T05:16:24;1.80;99.90
15203;DHT22;7702;51.046;5.184;2024-01-15T05:18:49;1.80;99.90
15203;DHT22;7702;51.046;5.184;2024-01-15T05:21:15;1.80;99.90
15203;DHT22;7702;51.046;5.184;2024-01-15T05:23:41;1.90;99.90
15203;DHT22;7702;51.046;5.184;2024-01-15T05:26:07;1.80;99.90
15203;DHT22;7702;51.046;5.184;2024-01-15T05:28:34;1.70;99.90
15203;DHT22;7702;51.046;5.184;2024-01-15T05:31:01;1.70;99.90
15203;DHT22;7702;51.046;5.184;2024-01-15T05:33:26;1.70;99.90
15203;DHT22;7702;51.046;5.184;2024-01-15T05:35:52;1.80;99.90
15203;DHT22;7702;51.046;5.184;2024-01-15T05:38:19;1.80;99.90
15203;DHT22;7702;51.046;5.184;2024-01-15T05:40:45;1.70;99.90
15203;DHT22;7702;51.046;5.184;2024-01-15T05:43:10;1.80;99.90
15203;DHT22;7702;51.046;5.184;2024-01-15T05:45:38;1.80;99.90
15203;DHT22;7702;51.046;5.184;2024-01-15T05:48:04;1.80;99.90
15203;DHT22;7702;51.046;5.184;2024-01-15T05:50:30;1.80;99.90
15203;DHT22;7702;51.046;5.184;2024-01-15T05:52:55;1.70;99.90
15203;DHT22;7702;51.046;5.184;2024-01-15T05:55:21;1.70;99.90
15203;DHT22;7702;51.046;5.184;2024-01-15T05:57:47;1.70;99.90
15203;DHT22;7702;51.046;5.184;2024-01-15T06:00:13;1.60;99.90
15203;DHT22;7702;51.046;5.184;2024-01-15T06:02:38;1.60;99.90
15203;DHT22;7702;51.046;5.184;2024-01-15T06:05:05;1.60;99.90
15203;DHT22;7702;51.046;5.184;2024-01-15T06:07:33;1.60;99.90
15203;DHT22;7702;51.046;5.184;2024-01-15T06:09:59;1.60;99.90
15203;DHT22;7702;51.046;5.184;2024-01-15T06:12:24;1.60;99.90
15203;DHT22;7702;51.046;5.184;2024-01-15T06:14:50;1.60;99.90
15203;DHT22;7702;51.046;5.184;2024-01-15T06:17:16;1.50;99.90
15203;DHT22;7702;51.046;5.184;2024-01-15T06:19:41;1.60;99.90
15203;DHT22;7702;51.046;5.184;2024-01-15T06:22:07;1.50;99.90
15203;DHT22;7702;51.046;5.184;2024-01-15T06:24:32;1.50;99.90
15203;DHT22;7702;51.046;5.184;2024-01-15T06:26:59;1.50;99.90
15203;DHT22;7702;51.046;5.184;2024-01-15T06:29:25;1.60;99.90
15203;DHT22;7702;51.046;5.184;2024-01-15T06:31:52;1.60;99.90
15203;DHT22;7702;51.046;5.184;2024-01-15T06:34:17;1.60;99.90
15203;DHT22;7702;51.046;5.184;2024-01-15T06:36:43;1.50;99.90
15203;DHT22;7702;51.046;5.184;2024-01-15T06:39:09;1.50;99.90
15203;DHT22;7702;51.046;5.184;2024-01-15T06:41:35;1.60;99.90
15203;DHT22;7702;51.046;5.184;2024-01-15T06:44:07;1.50;99.90
15203;DHT22;7702;51.046;5.184;2024-01-15T06:46:32;1.50;99.90
15203;DHT22;7702;51.046;5.184;2024-01-15T06:48:58;1.50;99.90
15203;DHT22;7702;51.046;5.184;2024-01-15T06:51:24;1.50;99.90
15203;DHT22;7702;51.046;5.184;2024-01-15T06:53:49;1.50;99.90
15203;DHT22;7702;51.046;5.184;2024-01-15T06:56:15;1.50;99.90
15203;DHT22;7702;51.046;5.184;2024-01-15T06:58:41;1.50;99.90
15203;DHT22;7702;51.046;5.184;2024-01-15T07:01:06;1.50;99.90
15203;DHT22;7702;51.046;5.184;2024-01-15T07:03:33;1.60;99.90
15203;DHT22;7702;51.046;5.184;2024-01-15T07:05:58;1.60;99.90
15203;DHT22;7702;51.046;5.184;2024-01-15T07:08:24;1.60;99.90
15203;DHT22;7702;51.046;5.184;2024-01-15T07:10:50;1.60;99.90
15203;DHT22;7702;51.046;5.184;2024-01-15T07:13:16;1.60;99.90
15203;DHT22;7702;51.046;5.184;2024-01-15T07:15:43;1.60;99.90
15203;DHT22;7702;51.046;5.184;2024-01-15T07:18:08;1.60;99.90
15203;DHT22;7702;51.046;5.184;2024-01-15T07:20:34;1.60;99.90
15203;DHT22;7702;51.046;5.184;2024-01-15T07:23:00;1.60;99.90
15203;DHT22;7702;51.046;5.184;2024-01-15T07:25:25;1.60;99.90
15203;DHT22;7702;51.046;5.184;2024-01-15T07:27:51;1.70;99.90
15203;DHT22;7702;51.046;5.184;2024-01-15T07:30:19;1.70;99.90
15203;DHT22;7702;51.046;5.184;2024-01-15T07:32:44;1.60;99.90
15203;DHT22;7702;51.046;5.184;2024-01-15T07:35:10;1.60;99.90
15203;DHT22;7702;51.046;5.184;2024-01-15T07:37:36;1.70;99.90
15203;DHT22;7702;51.046;5.184;2024-01-15T07:40:01;1.60;99.90
15203;DHT22;7702;51.046;5.184;2024-01-15T07:42:29;1.60;99.90
15203;DHT22;7702;51.046;5.184;2024-01-15T07:44:55;1.50;99.90
15203;DHT22;7702;51.046;5.184;2024-01-15T07:47:21;1.50;99.90
15203;DHT22;7702;51.046;5.184;2024-01-15T07:49:46;1.40;99.90
15203;DHT22;7702;51.046;5.184;2024-01-15T07:52:12;1.30;99.90
15203;DHT22;7702;51.046;5.184;2024-01-15T07:54:39;1.20;99.90
15203;DHT22;7702;51.046;5.184;2024-01-15T07:57:04;1.20;99.90
15203;DHT22;7702;51.046;5.184;2024-01-15T07:59:30;1.10;99.90
15203;DHT22;7702;51.046;5.184;2024-01-15T08:01:58;1.00;99.90
15203;DHT22;7702;51.046;5.184;2024-01-15T08:04:24;0.90;99.90
15203;DHT22;7702;51.046;5.184;2024-01-15T08:06:50;0.90;99.90
15203;DHT22;7702;51.046;5.184;2024-01-15T08:09:16;0.90;99.90
15203;DHT22;7702;51.046;5.184;2024-01-15T08:11:42;0.90;99.90
15203;DHT22;7702;51.046;5.184;2024-01-15T08:14:09;0.80;99.90
15203;DHT22;7702;51.046;5.184;2024-01-15T08:16:38;0.80;99.90
15203;DHT22;7702;51.046;5.184;2024-01-15T08:19:04;0.90;99.90
15203;DHT22;7702;51.046;5.184;2024-01-15T08:21:30;0.90;99.90
15203;DHT22;7702;51.046;5.184;2024-01-15T08:23:58;0.90;99.90
15203;DHT22;7702;51.046;5.184;2024-01-15T08:26:24;0.90;99.90
15203;DHT22;7702;51.046;5.184;2024-01-15T08:28:50;0.90;99.90
15203;DHT22;7702;51.046;5.184;2024-01-15T08:31:16;0.90;99.90
15203;DHT22;7702;51.046;5.184;2024-01-15T08:33:42;1.00;99.90
15203;DHT22;7702;51.046;5.184;2024-01-15T08:36:09;1.00;99.90
15203;DHT22;7702;51.046;5.184;2024-01-15T08:38:35;1.00;99.90
15203;DHT22;7702;51.046;5.184;2024-01-15T08:41:01;1.00;99.90
15203;DHT22;7702;51.046;5.184;2024-01-15T08:43:27;1.00;99.90
15203;DHT22;7702;51.046;5.184;2024-01-15T08:45:53;1.00;99.90
15203;DHT22;7702;51.046;5.184;2024-01-15T08:48:19;1.10;99.90
15203;DHT22;7702;51.046;5.184;2024-01-15T08:50:45;1.10;99.90
15203;DHT22;7702;51.046;5.184;2024-01-15T08:53:15;1.10;99.90
15203;DHT22;7702;51.046;5.184;2024-01-15T08:55:40;1.10;99.90
15203;DHT22;7702;51.046;5.184;2024-01-15T08:58:10;1.10;99.90
15203;DHT22;7702;51.046;5.184;2024-01-15T09:00:35;1.10;99.90
15203;DHT22;7702;51.046;5.184;2024-01-15T09:03:01;1.10;99.90
15203;DHT22;7702;51.046;5.184;2024-01-15T09:05:27;1.20;99.90
15203;DHT22;7702;51.046;5.184;2024-01-15T09:07:54;1.20;99.90
15203;DHT22;7702;51.046;5.184;2024-01-15T09:10:20;1.20;99.90
15203;DHT22;7702;51.046;5.184;2024-01-15T09:12:46;1.20;99.90
15203;DHT22;7702;51.046;5.184;2024-01-15T09:15:12;1.20;99.90
15203;DHT22;7702;51.046;5.184;2024-01-15T09:17:38;1.20;99.90
15203;DHT22;7702;51.046;5.184;2024-01-15T09:20:04;1.30;99.90
15203;DHT22;7702;51.046;5.184;2024-01-15T09:22:31;1.30;99.90
15203;DHT22;7702;51.046;5.184;2024-01-15T09:24:57;1.40;99.90
15203;DHT22;7702;51.046;5.184;2024-01-15T09:27:23;1.40;99.90
15203;DHT22;7702;51.046;5.184;2024-01-15T09:29:52;1.40;99.90
15203;DHT22;7702;51.046;5.184;2024-01-15T09:32:17;1.50;99.90
15203;DHT22;7702;51.046;5.184;2024-01-15T09:34:44;1.50;99.90
15203;DHT22;7702;51.046;5.184;2024-01-15T09:37:09;1.60;99.90
15203;DHT22;7702;51.046;5.184;2024-01-15T09:39:35;1.60;99.90
15203;DHT22;7702;51.046;5.184;2024-01-15T09:42:01;1.70;99.90
15203;DHT22;7702;51.046;5.184;2024-01-15T09:44:28;1.70;99.90
15203;DHT22;7702;51.046;5.184;2024-01-15T09:46:55;1.80;99.90
15203;DHT22;7702;51.046;5.184;2024-01-15T09:49:21;1.80;99.90
15203;DHT22;7702;51.046;5.184;2024-01-15T09:51:48;1.80;99.90
15203;DHT22;7702;51.046;5.184;2024-01-15T09:54:15;1.80;99.90
15203;DHT22;7702;51.046;5.184;2024-01-15T09:56:46;1.80;99.90
15203;DHT22;7702;51.046;5.184;2024-01-15T09:59:15;1.80;99.90
15203;DHT22;7702;51.046;5.184;2024-01-15T10:01:42;1.80;99.90
15203;DHT22;7702;51.046;5.184;2024-01-15T10:04:08;1.80;99.90
15203;DHT22;7702;51.046;5.184;2024-01-15T10:06:34;1.80;99.90
15203;DHT22;7702;51.046;5.184;2024-01-15T10:09:00;1.80;99.90
15203;DHT22;7702;51.046;5.184;2024-01-15T10:11:26;2.00;99.90
15203;DHT22;7702;51.046;5.184;2024-01-15T10:13:52;2.30;99.90
15203;DHT22;7702;51.046;5.184;2024-01-15T10:16:21;2.60;99.90
15203;DHT22;7702;51.046;5.184;2024-01-15T10:18:48;2.80;99.90
15203;DHT22;7702;51.046;5.184;2024-01-15T10:21:14;3.00;99.90
15203;DHT22;7702;51.046;5.184;2024-01-15T10:23:39;3.20;99.90
15203;DHT22;7702;51.046;5.184;2024-01-15T10:26:05;3.10;99.90
15203;DHT22;7702;51.046;5.184;2024-01-15T10:28:31;3.30;99.90
15203;DHT22;7702;51.046;5.184;2024-01-15T10:30:59;3.30;99.90
15203;DHT22;7702;51.046;5.184;2024-01-15T10:33:25;3.40;99.90
15203;DHT22;7702;51.046;5.184;2024-01-15T10:35:59;3.40;99.90
15203;DHT22;7702;51.046;5.184;2024-01-15T10:38:26;3.40;99.90
15203;DHT22;7702;51.046;5.184;2024-01-15T10:40:55;3.50;99.90
15203;DHT22;7702;51.046;5.184;2024-01-15T10:43:21;3.70;99.90
15203;DHT22;7702;51.046;5.184;2024-01-15T10:45:49;3.90;99.90
15203;DHT22;7702;51.046;5.184;2024-01-15T10:48:19;3.80;99.90
15203;DHT22;7702;51.046;5.184;2024-01-15T10:50:45;3.80;99.90
15203;DHT22;7702;51.046;5.184;2024-01-15T10:53:13;4.00;99.90
15203;DHT22;7702;51.046;5.184;2024-01-15T10:55:41;4.20;99.90
15203;DHT22;7702;51.046;5.184;2024-01-15T10:58:08;4.40;99.90
15203;DHT22;7702;51.046;5.184;2024-01-15T11:00:38;4.20;99.90
15203;DHT22;7702;51.046;5.184;2024-01-15T11:03:05;3.80;99.90
15203;DHT22;7702;51.046;5.184;2024-01-15T11:05:38;3.60;99.90
15203;DHT22;7702;51.046;5.184;2024-01-15T11:08:07;3.20;99.90
15203;DHT22;7702;51.046;5.184;2024-01-15T11:10:44;3.10;99.90
15203;DHT22;7702;51.046;5.184;2024-01-15T11:13:22;3.00;99.90
15203;DHT22;7702;51.046;5.184;2024-01-15T11:16:04;2.70;99.90
15203;DHT22;7702;51.046;5.184;2024-01-15T11:18:41;2.20;99.90
15203;DHT22;7702;51.046;5.184;2024-01-15T11:23:43;1.50;99.90
15203;DHT22;7702;51.046;5.184;2024-01-15T11:28:57;1.30;99.90
15203;DHT22;7702;51.046;5.184;2024-01-15T11:31:28;1.30;99.90
15203;DHT22;7702;51.046;5.184;2024-01-15T11:33:54;1.10;99.90
15203;DHT22;7702;51.046;5.184;2024-01-15T11:36:37;1.20;99.90
15203;DHT22;7702;51.046;5.184;2024-01-15T11:42:02;1.10;99.90
15203;DHT22;7702;51.046;5.184;2024-01-15T11:44:31;1.00;99.90
15203;DHT22;7702;51.046;5.184;2024-01-15T11:47:04;0.90;99.90
15203;DHT22;7702;51.046;5.184;2024-01-15T11:52:18;0.80;99.90
15203;DHT22;7702;51.046;5.184;2024-01-15T11:55:10;0.90;99.90
15203;DHT22;7702;51.046;5.184;2024-01-15T12:00:07;1.00;99.90
15203;DHT22;7702;51.046;5.184;2024-01-15T12:02:34;1.00;99.90
15203;DHT22;7702;51.046;5.184;2024-01-15T12:04:59;1.10;99.90
15203;DHT22;7702;51.046;5.184;2024-01-15T12:07:26;1.00;99.90
15203;DHT22;7702;51.046;5.184;2024-01-15T12:09:51;1.00;99.90
15203;DHT22;7702;51.046;5.184;2024-01-15T12:12:25;0.90;99.90
15203;DHT22;7702;51.046;5.184;2024-01-15T12:14:52;0.90;99.90
15203;DHT22;7702;51.046;5.184;2024-01-15T12:17:18;0.90;99.90
15203;DHT22;7702;51.046;5.184;2024-01-15T12:19:43;0.90;99.90
15203;DHT22;7702;51.046;5.184;2024-01-15T12:22:09;1.00;99.90
15203;DHT22;7702;51.046;5.184;2024-01-15T12:24:35;1.10;99.90
15203;DHT22;7702;51.046;5.184;2024-01-15T12:27:01;1.20;99.90
15203;DHT22;7702;51.046;5.184;2024-01-15T12:29:27;1.20;99.90
15203;DHT22;7702;51.046;5.184;2024-01-15T12:31:53;1.20;99.90
15203;DHT22;7702;51.046;5.184;2024-01-15T12:34:19;1.30;99.90
15203;DHT22;7702;51.046;5.184;2024-01-15T12:36:46;1.40;99.90
15203;DHT22;7702;51.046;5.184;2024-01-15T12:39:12;1.60;99.90
15203;DHT22;7702;51.046;5.184;2024-01-15T12:41:38;1.70;99.90
15203;DHT22;7702;51.046;5.184;2024-01-15T12:44:04;1.80;99.90
15203;DHT22;7702;51.046;5.184;2024-01-15T12:46:30;1.90;99.90
15203;DHT22;7702;51.046;5.184;2024-01-15T12:48:56;1.90;99.90
15203;DHT22;7702;51.046;5.184;2024-01-15T12:51:26;1.90;99.90
15203;DHT22;7702;51.046;5.184;2024-01-15T12:53:52;1.90;99.90
15203;DHT22;7702;51.046;5.184;2024-01-15T12:56:18;1.90;99.90
15203;DHT22;7702;51.046;5.184;2024-01-15T12:58:43;1.90;99.90
15203;DHT22;7702;51.046;5.184;2024-01-15T13:01:09;1.70;99.90
15203;DHT22;7702;51.046;5.184;2024-01-15T13:03:35;1.70;99.90
15203;DHT22;7702;51.046;5.184;2024-01-15T13:06:00;1.70;99.90
15203;DHT22;7702;51.046;5.184;2024-01-15T13:08:26;1.70;99.90
15203;DHT22;7702;51.046;5.184;2024-01-15T13:10:55;1.70;99.90
15203;DHT22;7702;51.046;5.184;2024-01-15T13:13:22;1.70;99.90
15203;DHT22;7702;51.046;5.184;2024-01-15T13:15:48;1.80;99.90
15203;DHT22;7702;51.046;5.184;2024-01-15T13:18:14;1.90;99.90
15203;DHT22;7702;51.046;5.184;2024-01-15T13:20:40;2.00;99.90
15203;DHT22;7702;51.046;5.184;2024-01-15T13:23:05;2.00;99.90
15203;DHT22;7702;51.046;5.184;2024-01-15T13:25:31;2.00;99.90
15203;DHT22;7702;51.046;5.184;2024-01-15T13:27:59;2.00;99.90
15203;DHT22;7702;51.046;5.184;2024-01-15T13:30:24;1.90;99.90
15203;DHT22;7702;51.046;5.184;2024-01-15T13:32:50;1.80;99.90
15203;DHT22;7702;51.046;5.184;2024-01-15T13:35:16;1.80;99.90
15203;DHT22;7702;51.046;5.184;2024-01-15T13:37:42;1.80;99.90
15203;DHT22;7702;51.046;5.184;2024-01-15T13:40:08;1.70;99.90
15203;DHT22;7702;51.046;5.184;2024-01-15T13:42:35;1.80;99.90
15203;DHT22;7702;51.046;5.184;2024-01-15T13:45:05;1.70;99.90
15203;DHT22;7702;51.046;5.184;2024-01-15T13:47:31;1.70;99.90
15203;DHT22;7702;51.046;5.184;2024-01-15T13:49:58;1.70;99.90
15203;DHT22;7702;51.046;5.184;2024-01-15T13:52:24;1.80;99.90
15203;DHT22;7702;51.046;5.184;2024-01-15T13:54:50;1.90;99.90
15203;DHT22;7702;51.046;5.184;2024-01-15T13:57:16;1.70;99.90
15203;DHT22;7702;51.046;5.184;2024-01-15T13:59:42;1.70;99.90
15203;DHT22;7702;51.046;5.184;2024-01-15T14:02:08;1.70;99.90
15203;DHT22;7702;51.046;5.184;2024-01-15T14:04:35;1.70;99.90
15203;DHT22;7702;51.046;5.184;2024-01-15T14:07:00;1.70;99.90
15203;DHT22;7702;51.046;5.184;2024-01-15T14:09:26;1.70;99.90
15203;DHT22;7702;51.046;5.184;2024-01-15T14:11:52;1.80;99.90
15203;DHT22;7702;51.046;5.184;2024-01-15T14:14:18;1.70;99.90
15203;DHT22;7702;51.046;5.184;2024-01-15T14:16:44;1.80;99.90
15203;DHT22;7702;51.046;5.184;2024-01-15T14:19:09;1.80;99.90
15203;DHT22;7702;51.046;5.184;2024-01-15T14:21:35;1.70;99.90
15203;DHT22;7702;51.046;5.184;2024-01-15T14:24:01;1.70;99.90
15203;DHT22;7702;51.046;5.184;2024-01-15T14:26:27;1.70;99.90
15203;DHT22;7702;51.046;5.184;2024-01-15T14:28:53;1.70;99.90
15203;DHT22;7702;51.046;5.184;2024-01-15T14:31:20;1.70;99.90
15203;DHT22;7702;51.046;5.184;2024-01-15T14:33:46;1.90;99.90
15203;DHT22;7702;51.046;5.184;2024-01-15T14:36:11;1.80;99.90
15203;DHT22;7702;51.046;5.184;2024-01-15T14:38:37;1.70;99.90
15203;DHT22;7702;51.046;5.184;2024-01-15T14:41:03;1.70;99.90
15203;DHT22;7702;51.046;5.184;2024-01-15T14:43:29;1.70;99.90
15203;DHT22;7702;51.046;5.184;2024-01-15T14:45:55;1.60;99.90
15203;DHT22;7702;51.046;5.184;2024-01-15T14:48:22;1.70;99.90
15203;DHT22;7702;51.046;5.184;2024-01-15T14:50:48;1.70;99.90
15203;DHT22;7702;51.046;5.184;2024-01-15T14:53:14;1.80;99.90
15203;DHT22;7702;51.046;5.184;2024-01-15T14:55:39;1.80;99.90
15203;DHT22;7702;51.046;5.184;2024-01-15T14:58:05;1.90;99.90
15203;DHT22;7702;51.046;5.184;2024-01-15T15:00:31;1.80;99.90
15203;DHT22;7702;51.046;5.184;2024-01-15T15:02:56;1.80;99.90
15203;DHT22;7702;51.046;5.184;2024-01-15T15:05:22;1.70;99.90
15203;DHT22;7702;51.046;5.184;2024-01-15T15:07:48;1.70;99.90
15203;DHT22;7702;51.046;5.184;2024-01-15T15:10:14;1.70;99.90
15203;DHT22;7702;51.046;5.184;2024-01-15T15:12:40;1.60;99.90
15203;DHT22;7702;51.046;5.184;2024-01-15T15:15:06;1.70;99.90
15203;DHT22;7702;51.046;5.184;2024-01-15T15:17:32;1.60;99.90
15203;DHT22;7702;51.046;5.184;2024-01-15T15:19:58;1.50;99.90
15203;DHT22;7702;51.046;5.184;2024-01-15T15:22:23;1.40;99.90
15203;DHT22;7702;51.046;5.184;2024-01-15T15:24:49;1.30;99.90
15203;DHT22;7702;51.046;5.184;2024-01-15T15:27:15;1.30;99.90
15203;DHT22;7702;51.046;5.184;2024-01-15T15:29:41;1.30;99.90
15203;DHT22;7702;51.046;5.184;2024-01-15T15:32:07;1.30;99.90
15203;DHT22;7702;51.046;5.184;2024-01-15T15:34:33;1.30;99.90
15203;DHT22;7702;51.046;5.184;2024-01-15T15:36:58;1.20;99.90
15203;DHT22;7702;51.046;5.184;2024-01-15T15:39:24;1.30;99.90
15203;DHT22;7702;51.046;5.184;2024-01-15T15:41:50;1.30;99.90
15203;DHT22;7702;51.046;5.184;2024-01-15T15:44:16;1.30;99.90
15203;DHT22;7702;51.046;5.184;2024-01-15T15:46:42;1.30;99.90
15203;DHT22;7702;51.046;5.184;2024-01-15T15:49:08;1.30;99.90
15203;DHT22;7702;51.046;5.184;2024-01-15T15:51:34;1.30;99.90
15203;DHT22;7702;51.046;5.184;2024-01-15T15:54:01;1.30;99.90
15203;DHT22;7702;51.046;5.184;2024-01-15T15:56:27;1.30;99.90
15203;DHT22;7702;51.046;5.184;2024-01-15T15:58:52;1.30;99.90
15203;DHT22;7702;51.046;5.184;2024-01-15T16:01:18;1.30;99.90
15203;DHT22;7702;51.046;5.184;2024-01-15T16:03:44;1.30;99.90
15203;DHT22;7702;51.046;5.184;2024-01-15T16:06:11;1.20;99.90
15203;DHT22;7702;51.046;5.184;2024-01-15T16:08:37;1.30;99.90
15203;DHT22;7702;51.046;5.184;2024-01-15T16:11:03;1.30;99.90